Time;durP1;ratioP1;P1;durP2;ratioP2;P2;SDS_P1;SDS_P2;PMS_P1;PMS_P2;Temp;Humidity;BMP_temperature;BMP_pressure;BME280_temperature;BME280_humidity;BME280_pressure;Samples;Min_cycle;Max_cycle;Signal;HPM_P1;HPM_P2
2022/12/21 00:00:08;;;;;;;;;;;;;;;;;;2080875;28;20182;-87
2022/12/21 00:01:20;;;;;;;;;;;;;;;;;;2089653;28;19913;-89
2022/12/21 00:02:20;;;;;;;;;;;;;;;;;;2090055;28;19913;-87
2022/12/21 00:03:20;;;;;;;;;;;;;;;;;;2090087;28;19984;-87
2022/12/21 00:04:20;;;;;;;;;;;;;;;;;;2089300;28;20409;-89
2022/12/21 00:05:21;;;;;;;;;;;;;;;;;;2081044;28;19932;-88
2022/12/21 00:06:22;;;;;;;;;;;;;;;;;;2089291;28;19913;-90
2022/12/21 00:07:23;;;;;;;;;;;;;;;;;;2089777;28;19913;-89
2022/12/21 00:08:23;;;;;;;;;;;;;;;;;;2090060;28;19931;-87
2022/12/21 00:09:23;;;;;;;;;;;;;;;;;;2089378;28;19991;-87
2022/12/21 00:10:23;;;;;;;;;;;;;;;;;;2089222;28;19961;-87
2022/12/21 00:11:24;;;;;;;;;;;;;;;;;;2089184;28;19959;-87
2022/12/21 00:12:24;;;;;;;;;;;;;;;;;;2082511;28;20004;-87
2022/12/21 00:13:25;;;;;;;;;;;;;;;;;;2089230;28;20299;-86
2022/12/21 00:14:25;;;;;;;;;;;;;;;;;;2089688;28;19913;-88
2022/12/21 00:15:25;;;;;;;;;;;;;;;;;;2089590;28;19913;-88
2022/12/21 00:16:27;;;;;;;;;;;;;;;;;;2080987;28;19937;-88
2022/12/21 00:17:27;;;;;;;;;;;;;;;;;;2081210;28;19919;-88
2022/12/21 00:18:30;;;;;;;;;;;;;;;;;;2081049;28;19940;-89
2022/12/21 00:19:30;;;;;;;;;;;;;;;;;;2090090;28;19913;-89
2022/12/21 00:20:30;;;;;;;;;;;;;;;;;;2099863;28;20026;-87
2022/12/21 00:21:32;;;;;;;;;;;;;;;;;;2108146;28;19955;-88
2022/12/21 00:22:32;;;;;;;;;;;;;;;;;;2093332;28;19917;-88
2022/12/21 00:23:33;;;;;;;;;;;;;;;;;;2091199;28;19920;-90
2022/12/21 00:24:33;;;;;;;;;;;;;;;;;;2089998;28;19917;-89
2022/12/21 00:25:34;;;;;;;;;;;;;;;;;;2089388;28;19916;-87
2022/12/21 00:26:36;;;;;;;;;;;;;;;;;;2089841;28;19916;-89
2022/12/21 00:27:36;;;;;;;;;;;;;;;;;;2089087;28;19982;-89
2022/12/21 00:28:37;;;;;;;;;;;;;;;;;;1740672;28;10000951;-89
2022/12/21 00:29:37;;;;;;;;;;;;;;;;;;2089240;28;19995;-88
2022/12/21 00:30:37;;;;;;;;;;;;;;;;;;2089134;28;20139;-88
2022/12/21 00:31:39;;;;;;;;;;;;;;;;;;2080714;28;20342;-87
2022/12/21 00:32:39;;;;;;;;;;;;;;;;;;2081020;28;20015;-88
2022/12/21 00:33:40;;;;;;;;;;;;;;;;;;2089214;28;19912;-89
2022/12/21 00:34:40;;;;;;;;;;;;;;;;;;2090177;28;19970;-88
2022/12/21 00:35:45;;;;;;;;;;;;;;;;;;2089141;28;19943;-87
2022/12/21 00:36:46;;;;;;;;;;;;;;;;;;2089061;28;19959;-88
2022/12/21 00:37:46;;;;;;;;;;;;;;;;;;2089279;28;20419;-88
2022/12/21 00:38:47;;;;;;;;;;;;;;;;;;2089595;28;20322;-88
2022/12/21 00:39:47;;;;;;;;;;;;;;;;;;2097944;28;20000;-89
2022/12/21 00:40:54;;;;;;;;;;;;;;;;;;2099560;28;19963;-88
2022/12/21 00:41:55;;;;;;;;;;;;;;;;;;2096859;28;19909;-89
2022/12/21 00:42:55;;;;;;;;;;;;;;;;;;2096946;28;19939;-90
2022/12/21 00:43:55;;;;;;;;;;;;;;;;;;2093849;28;19920;-89
2022/12/21 00:44:56;;;;;;;;;;;;;;;;;;2092229;28;19975;-89
2022/12/21 00:45:57;;;;;;;;;;;;;;;;;;2089322;28;20011;-89
2022/12/21 00:46:57;;;;;;;;;;;;;;;;;;2097563;28;20255;-88
2022/12/21 00:47:57;;;;;;;;;;;;;;;;;;2097168;28;20161;-88
2022/12/21 00:48:59;;;;;;;;;;;;;;;;;;2088941;28;19956;-89
2022/12/21 00:49:59;;;;;;;;;;;;;;;;;;2080606;28;19963;-88
2022/12/21 00:51:06;;;;;;;;;;;;;;;;;;2088711;28;19912;-89
2022/12/21 00:52:06;;;;;;;;;;;;;;;;;;2087950;28;19923;-88
2022/12/21 00:53:08;;;;;;;;;;;;;;;;;;2088833;28;20194;-89
2022/12/21 00:54:08;;;;;;;;;;;;;;;;;;2088862;28;20407;-88
2022/12/21 00:55:09;;;;;;;;;;;;;;;;;;2089638;28;19990;-88
2022/12/21 00:56:09;;;;;;;;;;;;;;;;;;2097158;28;20124;-89
2022/12/21 00:57:10;;;;;;;;;;;;;;;;;;2097201;28;20406;-88
2022/12/21 00:58:10;;;;;;;;;;;;;;;;;;2088881;28;19916;-89
2022/12/21 00:59:10;;;;;;;;;;;;;;;;;;2088714;28;20013;-89
2022/12/21 01:00:11;;;;;;;;;;;;;;;;;;2088997;28;19917;-88
2022/12/21 01:01:17;;;;;;;;;;;;;;;;;;2080878;28;19913;-89
2022/12/21 01:02:17;;;;;;;;;;;;;;;;;;2088863;28;19913;-88
2022/12/21 01:03:20;;;;;;;;;;;;;;;;;;2088309;28;20714;-88
2022/12/21 01:04:21;;;;;;;;;;;;;;;;;;2088884;28;20397;-88
2022/12/21 01:05:21;;;;;;;;;;;;;;;;;;2088958;28;19947;-88
2022/12/21 01:06:23;;;;;;;;;;;;;;;;;;2097208;28;20390;-88
2022/12/21 01:07:23;;;;;;;;;;;;;;;;;;2088944;28;20335;-88
2022/12/21 01:08:24;;;;;;;;;;;;;;;;;;2088779;28;19975;-88
2022/12/21 01:09:24;;;;;;;;;;;;;;;;;;2097127;28;19913;-88
2022/12/21 01:10:25;;;;;;;;;;;;;;;;;;2089021;28;19955;-88
2022/12/21 01:11:27;;;;;;;;;;;;;;;;;;2089049;28;20243;-87
2022/12/21 01:12:27;;;;;;;;;;;;;;;;;;2097531;28;19913;-87
2022/12/21 01:13:28;;;;;;;;;;;;;;;;;;2089608;28;19999;-87
2022/12/21 01:14:29;;;;;;;;;;;;;;;;;;2089744;28;20346;-87
2022/12/21 01:15:29;;;;;;;;;;;;;;;;;;2090179;28;19950;-87
2022/12/21 01:16:30;;;;;;;;;;;;;;;;;;2099095;28;19977;-87
2022/12/21 01:17:30;;;;;;;;;;;;;;;;;;2100141;28;19959;-88
2022/12/21 01:18:44;;;;;;;;;;;;;;;;;;1119585;28;10022152;-88
2022/12/21 01:19:44;;;;;;;;;;;;;;;;;;2073664;28;19921;-88
2022/12/21 01:20:46;;;;;;;;;;;;;;;;;;2084806;28;19917;-88
2022/12/21 01:21:46;;;;;;;;;;;;;;;;;;2088794;28;19913;-88
2022/12/21 01:22:46;;;;;;;;;;;;;;;;;;2088742;28;20029;-88
2022/12/21 01:23:48;;;;;;;;;;;;;;;;;;2089599;28;19943;-87
2022/12/21 01:24:48;;;;;;;;;;;;;;;;;;2088508;28;19913;-88
2022/12/21 01:25:49;;;;;;;;;;;;;;;;;;2088946;28;19924;-88
2022/12/21 01:26:49;;;;;;;;;;;;;;;;;;2088652;28;20391;-88
2022/12/21 01:27:50;;;;;;;;;;;;;;;;;;2096913;28;19917;-88
2022/12/21 01:28:50;;;;;;;;;;;;;;;;;;2088895;28;19917;-89
2022/12/21 01:29:50;;;;;;;;;;;;;;;;;;2088749;28;20331;-88
2022/12/21 01:30:50;;;;;;;;;;;;;;;;;;2096998;28;19920;-89
2022/12/21 01:31:50;;;;;;;;;;;;;;;;;;2096975;28;19916;-88
2022/12/21 01:32:51;;;;;;;;;;;;;;;;;;2088584;28;19978;-88
2022/12/21 01:33:52;;;;;;;;;;;;;;;;;;2088568;28;20277;-88
2022/12/21 01:34:54;;;;;;;;;;;;;;;;;;2089954;28;19989;-87
2022/12/21 01:35:55;;;;;;;;;;;;;;;;;;2094320;28;19913;-88
2022/12/21 01:36:55;;;;;;;;;;;;;;;;;;2088512;28;19913;-88
2022/12/21 01:37:56;;;;;;;;;;;;;;;;;;2088680;28;19920;-88
2022/12/21 01:38:56;;;;;;;;;;;;;;;;;;2096837;28;20036;-89
2022/12/21 01:39:56;;;;;;;;;;;;;;;;;;2088536;28;20375;-88
2022/12/21 01:40:56;;;;;;;;;;;;;;;;;;2088669;28;20003;-88
2022/12/21 01:41:57;;;;;;;;;;;;;;;;;;2088854;28;19966;-88
2022/12/21 01:42:58;;;;;;;;;;;;;;;;;;2088823;28;20070;-88
2022/12/21 01:43:59;;;;;;;;;;;;;;;;;;2096806;28;20006;-88
2022/12/21 01:45:02;;;;;;;;;;;;;;;;;;2088390;28;20485;-89
2022/12/21 01:46:02;;;;;;;;;;;;;;;;;;2088689;28;20376;-89
2022/12/21 01:47:03;;;;;;;;;;;;;;;;;;1733237;28;10001173;-89
2022/12/21 01:48:14;;;;;;;;;;;;;;;;;;1961360;28;10001229;-89
2022/12/21 01:49:20;;;;;;;;;;;;;;;;;;2079790;28;19913;-88
2022/12/21 01:50:29;;;;;;;;;;;;;;;;;;2088982;28;19920;-89
2022/12/21 01:51:32;;;;;;;;;;;;;;;;;;2088768;28;19913;-88
2022/12/21 01:52:32;;;;;;;;;;;;;;;;;;2080559;28;20044;-89
2022/12/21 01:53:36;;;;;;;;;;;;;;;;;;2088522;28;19920;-89
2022/12/21 01:54:40;;;;;;;;;;;;;;;;;;2088434;28;19999;-89
2022/12/21 01:55:42;;;;;;;;;;;;;;;;;;2080575;28;19913;-89
2022/12/21 01:56:45;;;;;;;;;;;;;;;;;;2088673;28;19990;-89
2022/12/21 01:57:45;;;;;;;;;;;;;;;;;;2088611;28;20317;-90
2022/12/21 01:58:45;;;;;;;;;;;;;;;;;;2088535;28;19996;-88
2022/12/21 01:59:48;;;;;;;;;;;;;;;;;;2080238;28;20327;-89
2022/12/21 02:00:48;;;;;;;;;;;;;;;;;;2080557;28;19920;-89
2022/12/21 02:01:50;;;;;;;;;;;;;;;;;;2080210;28;20003;-88
2022/12/21 02:03:03;;;;;;;;;;;;;;;;;;2088516;28;19913;-89
2022/12/21 02:04:05;;;;;;;;;;;;;;;;;;2087857;28;20003;-89
2022/12/21 02:05:11;;;;;;;;;;;;;;;;;;2088663;28;20605;-90
2022/12/21 02:06:17;;;;;;;;;;;;;;;;;;2088509;28;19912;-89
2022/12/21 02:07:19;;;;;;;;;;;;;;;;;;2088693;28;19913;-89
2022/12/21 02:08:20;;;;;;;;;;;;;;;;;;2088542;28;19917;-89
2022/12/21 02:09:20;;;;;;;;;;;;;;;;;;2088163;28;19919;-90
2022/12/21 02:10:22;;;;;;;;;;;;;;;;;;2088223;28;20387;-89
2022/12/21 02:11:22;;;;;;;;;;;;;;;;;;2088394;28;19962;-90
2022/12/21 02:12:22;;;;;;;;;;;;;;;;;;2088415;28;20033;-89
2022/12/21 02:13:22;;;;;;;;;;;;;;;;;;2088455;28;19956;-89
2022/12/21 02:14:24;;;;;;;;;;;;;;;;;;2088742;28;20473;-90
2022/12/21 02:15:27;;;;;;;;;;;;;;;;;;2080214;28;19913;-89
2022/12/21 02:16:27;;;;;;;;;;;;;;;;;;2080744;28;19925;-89
2022/12/21 02:17:30;;;;;;;;;;;;;;;;;;2081036;28;19993;-90
2022/12/21 02:18:33;;;;;;;;;;;;;;;;;;2089509;28;20023;-89
2022/12/21 02:20:01;;;;;;;;;;;;;;;;;;2081003;28;20492;-89
2022/12/21 02:21:21;;;;;;;;;;;;;;;;;;2084437;28;20399;-88
2022/12/21 02:22:39;;;;;;;;;;;;;;;;;;2089198;28;19921;-90
2022/12/21 02:23:46;;;;;;;;;;;;;;;;;;2088815;28;19920;-88
2022/12/21 02:25:01;;;;;;;;;;;;;;;;;;2088385;28;19912;-89
2022/12/21 02:26:04;;;;;;;;;;;;;;;;;;2088363;28;19948;-89
2022/12/21 02:27:16;;;;;;;;;;;;;;;;;;2080322;28;20003;-90
2022/12/21 02:28:19;;;;;;;;;;;;;;;;;;2081706;28;20011;-89
2022/12/21 02:29:37;;;;;;;;;;;;;;;;;;2080249;28;19936;-90
2022/12/21 02:30:56;;;;;;;;;;;;;;;;;;2082331;28;19920;-89
2022/12/21 02:31:56;;;;;;;;;;;;;;;;;;2082712;28;19957;-90
2022/12/21 02:33:08;;;;;;;;;;;;;;;;;;2065896;28;19913;-88
2022/12/21 02:34:23;;;;;;;;;;;;;;;;;;2081915;28;20019;-89
2022/12/21 02:35:30;;;;;;;;;;;;;;;;;;2082322;28;19913;-89
2022/12/21 02:36:33;;;;;;;;;;;;;;;;;;2081011;28;19912;-90
2022/12/21 02:37:39;;;;;;;;;;;;;;;;;;2088784;28;19935;-90
2022/12/21 02:38:42;;;;;;;;;;;;;;;;;;2088424;28;19923;-90
2022/12/21 02:39:51;;;;;;;;;;;;;;;;;;2088486;28;20011;-90
2022/12/21 02:41:00;;;;;;;;;;;;;;;;;;2088193;28;20379;-90
2022/12/21 02:44:12;;;;;;;;;;;;;;;;;;2061812;28;19914;-89
2022/12/21 02:45:20;;;;;;;;;;;;;;;;;;2073846;28;19927;-89
2022/12/21 02:46:27;;;;;;;;;;;;;;;;;;2080792;28;19918;-88
2022/12/21 02:47:35;;;;;;;;;;;;;;;;;;2080619;28;19929;-88
2022/12/21 02:48:48;;;;;;;;;;;;;;;;;;2087985;28;19913;-89
2022/12/21 02:49:51;;;;;;;;;;;;;;;;;;2088252;28;19987;-88
2022/12/21 02:50:55;;;;;;;;;;;;;;;;;;2088011;28;19967;-87
2022/12/21 02:52:04;;;;;;;;;;;;;;;;;;2080455;28;19913;-88
2022/12/21 02:53:07;;;;;;;;;;;;;;;;;;2088172;28;20458;-89
2022/12/21 02:54:08;;;;;;;;;;;;;;;;;;2080237;28;19913;-88
2022/12/21 02:55:09;;;;;;;;;;;;;;;;;;2079969;28;20381;-87
2022/12/21 02:56:13;;;;;;;;;;;;;;;;;;2088170;28;19975;-88
2022/12/21 02:57:13;;;;;;;;;;;;;;;;;;2088134;28;19913;-87
2022/12/21 02:58:18;;;;;;;;;;;;;;;;;;2088026;28;19954;-87
2022/12/21 02:59:21;;;;;;;;;;;;;;;;;;2087891;28;20050;-87
2022/12/21 03:00:21;;;;;;;;;;;;;;;;;;2088761;28;19942;-87
2022/12/21 03:01:42;;;;;;;;;;;;;;;;;;2096980;28;20000;-87
2022/12/21 03:04:26;;;;;;;;;;;;;;;;;;2099021;28;19913;-87
2022/12/21 03:05:29;;;;;;;;;;;;;;;;;;2090636;28;19917;-87
2022/12/21 03:06:41;;;;;;;;;;;;;;;;;;2090285;28;19928;-87
2022/12/21 03:07:53;;;;;;;;;;;;;;;;;;2090331;28;20020;-87
2022/12/21 03:08:59;;;;;;;;;;;;;;;;;;2089135;28;20003;-88
2022/12/21 03:10:18;;;;;;;;;;;;;;;;;;2088935;28;19917;-88
2022/12/21 03:11:18;;;;;;;;;;;;;;;;;;2088006;28;19920;-88
2022/12/21 03:12:21;;;;;;;;;;;;;;;;;;2080054;28;20350;-87
2022/12/21 03:13:27;;;;;;;;;;;;;;;;;;2088113;28;20421;-87
2022/12/21 03:14:39;;;;;;;;;;;;;;;;;;2087997;28;19939;-88
2022/12/21 03:16:08;;;;;;;;;;;;;;;;;;2087907;28;20078;-87
2022/12/21 03:17:09;;;;;;;;;;;;;;;;;;2066209;28;19956;-87
2022/12/21 03:18:16;;;;;;;;;;;;;;;;;;2079727;28;20308;-86
2022/12/21 03:19:24;;;;;;;;;;;;;;;;;;2080788;28;19913;-87
2022/12/21 03:20:27;;;;;;;;;;;;;;;;;;2080957;28;19986;-87
2022/12/21 03:21:36;;;;;;;;;;;;;;;;;;2087224;28;19913;-87
2022/12/21 03:22:49;;;;;;;;;;;;;;;;;;2097321;28;19912;-87
2022/12/21 03:24:00;;;;;;;;;;;;;;;;;;2097808;28;19913;-87
2022/12/21 03:25:21;;;;;;;;;;;;;;;;;;2094196;28;19923;-86
2022/12/21 03:26:30;;;;;;;;;;;;;;;;;;2089371;28;19912;-87
2022/12/21 03:27:33;;;;;;;;;;;;;;;;;;2089361;28;19913;-88
2022/12/21 03:28:35;;;;;;;;;;;;;;;;;;2088402;28;19912;-86
2022/12/21 03:29:37;;;;;;;;;;;;;;;;;;2088193;28;19981;-88
2022/12/21 03:30:40;;;;;;;;;;;;;;;;;;2088601;28;19913;-89
2022/12/21 03:31:42;;;;;;;;;;;;;;;;;;2087916;28;19916;-89
2022/12/21 03:32:48;;;;;;;;;;;;;;;;;;2088111;28;19995;-88
2022/12/21 03:33:54;;;;;;;;;;;;;;;;;;2087925;28;20000;-88
2022/12/21 03:34:55;;;;;;;;;;;;;;;;;;2088690;28;20540;-88
2022/12/21 03:36:00;;;;;;;;;;;;;;;;;;2096457;28;19920;-87
2022/12/21 03:37:06;;;;;;;;;;;;;;;;;;2087665;28;19963;-88
2022/12/21 03:38:08;;;;;;;;;;;;;;;;;;2087874;28;19912;-87
2022/12/21 03:39:10;;;;;;;;;;;;;;;;;;2087831;28;19987;-88
2022/12/21 03:40:30;;;;;;;;;;;;;;;;;;2087668;28;19931;-87
2022/12/21 03:41:32;;;;;;;;;;;;;;;;;;2087835;28;20015;-87
2022/12/21 03:42:34;;;;;;;;;;;;;;;;;;2088056;28;19924;-88
2022/12/21 03:43:35;;;;;;;;;;;;;;;;;;2087828;28;19951;-88
2022/12/21 03:44:49;;;;;;;;;;;;;;;;;;2087778;28;20438;-89
2022/12/21 03:46:01;;;;;;;;;;;;;;;;;;2091374;28;20415;-94
2022/12/21 03:47:03;;;;;;;;;;;;;;;;;;2089595;28;19920;-95
2022/12/21 03:48:10;;;;;;;;;;;;;;;;;;2089538;28;19920;-94
2022/12/21 03:49:15;;;;;;;;;;;;;;;;;;2082252;28;19999;-93
2022/12/21 03:50:22;;;;;;;;;;;;;;;;;;2081919;28;20380;-94
2022/12/21 03:51:34;;;;;;;;;;;;;;;;;;2090229;28;20332;-94
2022/12/21 03:52:40;;;;;;;;;;;;;;;;;;2091423;28;19920;-95
2022/12/21 03:53:54;;;;;;;;;;;;;;;;;;2082992;28;19968;-94
2022/12/21 03:55:10;;;;;;;;;;;;;;;;;;2090650;28;19920;-93
2022/12/21 03:56:12;;;;;;;;;;;;;;;;;;2087855;28;19919;-92
2022/12/21 03:57:13;;;;;;;;;;;;;;;;;;2086648;28;19980;-92
2022/12/21 03:58:14;;;;;;;;;;;;;;;;;;2091078;28;19936;-94
2022/12/21 03:59:15;;;;;;;;;;;;;;;;;;2089541;28;19962;-96
2022/12/21 04:00:16;;;;;;;;;;;;;;;;;;2089393;28;19912;-96
2022/12/21 04:01:32;;;;;;;;;;;;;;;;;;2089726;28;19920;-95
2022/12/21 04:02:35;;;;;;;;;;;;;;;;;;2083602;28;19914;-95
2022/12/21 04:03:38;;;;;;;;;;;;;;;;;;2089288;28;19957;-94
2022/12/21 04:04:44;;;;;;;;;;;;;;;;;;2089148;28;19924;-93
2022/12/21 04:05:48;;;;;;;;;;;;;;;;;;2089198;28;19912;-94
2022/12/21 04:06:50;;;;;;;;;;;;;;;;;;2089296;28;19917;-93
2022/12/21 04:07:51;;;;;;;;;;;;;;;;;;2089415;28;19979;-93
2022/12/21 04:08:51;;;;;;;;;;;;;;;;;;2089339;28;20036;-94
2022/12/21 04:09:56;;;;;;;;;;;;;;;;;;2089183;28;19925;-95
2022/12/21 04:10:57;;;;;;;;;;;;;;;;;;2089849;28;19943;-94
2022/12/21 04:13:16;;;;;;;;;;;;;;;;;;2089960;28;19912;-95
2022/12/21 04:14:16;;;;;;;;;;;;;;;;;;2089226;28;19913;-94
2022/12/21 04:15:17;;;;;;;;;;;;;;;;;;2090746;28;19923;-95
2022/12/21 04:16:17;;;;;;;;;;;;;;;;;;2081234;28;19952;-95
2022/12/21 04:17:17;;;;;;;;;;;;;;;;;;2081167;28;20363;-95
2022/12/21 04:19:57;;;;;;;;;;;;;;;;;;2081225;28;19924;-94
2022/12/21 04:20:57;;;;;;;;;;;;;;;;;;2090397;28;19920;-94
2022/12/21 04:21:57;;;;;;;;;;;;;;;;;;2089354;28;20003;-95
2022/12/21 04:28:28;;;;;;;;;;;;;;;;;;2068610;28;19969;-95
2022/12/21 04:29:28;;;;;;;;;;;;;;;;;;2081250;28;19917;-95
2022/12/21 04:30:28;;;;;;;;;;;;;;;;;;2082690;28;19971;-93
2022/12/21 04:31:30;;;;;;;;;;;;;;;;;;2091023;28;19927;-94
2022/12/21 04:32:30;;;;;;;;;;;;;;;;;;2082632;28;19990;-93
2022/12/21 04:33:30;;;;;;;;;;;;;;;;;;2090998;28;20034;-94
2022/12/21 04:34:31;;;;;;;;;;;;;;;;;;2091021;28;20015;-94
2022/12/21 04:35:31;;;;;;;;;;;;;;;;;;2090770;28;20024;-94
2022/12/21 04:37:50;;;;;;;;;;;;;;;;;;2091502;28;20311;-94
2022/12/21 04:38:50;;;;;;;;;;;;;;;;;;2091173;28;19917;-92
2022/12/21 04:39:51;;;;;;;;;;;;;;;;;;2090727;28;20019;-93
2022/12/21 04:40:56;;;;;;;;;;;;;;;;;;2090523;28;20342;-94
2022/12/21 04:41:56;;;;;;;;;;;;;;;;;;2083026;28;19920;-95
2022/12/21 04:42:56;;;;;;;;;;;;;;;;;;2091025;28;19960;-95
2022/12/21 04:43:57;;;;;;;;;;;;;;;;;;2090893;28;19913;-96
2022/12/21 04:44:58;;;;;;;;;;;;;;;;;;2082286;28;19913;-95
2022/12/21 04:46:02;;;;;;;;;;;;;;;;;;2090806;28;19913;-94
2022/12/21 04:47:04;;;;;;;;;;;;;;;;;;2090507;28;19917;-94
2022/12/21 04:48:05;;;;;;;;;;;;;;;;;;2090779;28;19913;-95
2022/12/21 04:49:05;;;;;;;;;;;;;;;;;;2090603;28;19960;-94
2022/12/21 04:50:06;;;;;;;;;;;;;;;;;;2082237;28;20008;-94
2022/12/21 04:51:10;;;;;;;;;;;;;;;;;;2090465;28;19955;-94
2022/12/21 04:52:11;;;;;;;;;;;;;;;;;;2083130;28;19921;-92
2022/12/21 04:53:11;;;;;;;;;;;;;;;;;;2074169;28;20012;-95
2022/12/21 04:54:14;;;;;;;;;;;;;;;;;;2082043;28;20086;-94
2022/12/21 04:55:15;;;;;;;;;;;;;;;;;;2082631;28;19913;-94
2022/12/21 04:56:15;;;;;;;;;;;;;;;;;;2090633;28;20390;-94
2022/12/21 04:57:17;;;;;;;;;;;;;;;;;;2090734;28;20311;-94
2022/12/21 04:58:17;;;;;;;;;;;;;;;;;;2082598;28;20372;-94
2022/12/21 04:59:17;;;;;;;;;;;;;;;;;;2093756;28;19947;-94
2022/12/21 05:00:18;;;;;;;;;;;;;;;;;;2097578;28;19913;-93
2022/12/21 05:01:20;;;;;;;;;;;;;;;;;;2091742;28;19909;-94
2022/12/21 05:02:27;;;;;;;;;;;;;;;;;;2100665;28;19925;-94
2022/12/21 05:03:28;;;;;;;;;;;;;;;;;;2090216;28;19947;-94
2022/12/21 05:04:28;;;;;;;;;;;;;;;;;;2082612;28;19985;-95
2022/12/21 05:05:29;;;;;;;;;;;;;;;;;;1735143;28;10001280;-94
2022/12/21 05:06:31;;;;;;;;;;;;;;;;;;1735991;28;10001252;-95
2022/12/21 05:07:31;;;;;;;;;;;;;;;;;;2090562;28;19919;-94
2022/12/21 05:08:31;;;;;;;;;;;;;;;;;;2090585;28;20328;-94
2022/12/21 05:09:32;;;;;;;;;;;;;;;;;;2090677;28;19913;-95
2022/12/21 05:10:32;;;;;;;;;;;;;;;;;;2090347;28;19913;-95
2022/12/21 05:11:33;;;;;;;;;;;;;;;;;;2090519;28;19924;-94
2022/12/21 05:12:34;;;;;;;;;;;;;;;;;;2082203;28;19913;-94
2022/12/21 05:13:34;;;;;;;;;;;;;;;;;;2082596;28;19919;-93
2022/12/21 05:14:34;;;;;;;;;;;;;;;;;;2090320;28;19913;-94
2022/12/21 05:15:37;;;;;;;;;;;;;;;;;;2090273;28;20495;-94
2022/12/21 05:16:38;;;;;;;;;;;;;;;;;;2082110;28;19929;-93
2022/12/21 05:17:38;;;;;;;;;;;;;;;;;;2090007;28;19920;-91
2022/12/21 05:18:39;;;;;;;;;;;;;;;;;;2090260;28;19924;-94
2022/12/21 05:19:39;;;;;;;;;;;;;;;;;;2082021;28;19921;-93
2022/12/21 05:20:39;;;;;;;;;;;;;;;;;;2082087;28;20008;-93
2022/12/21 05:21:39;;;;;;;;;;;;;;;;;;2084470;28;19913;-92
2022/12/21 05:22:40;;;;;;;;;;;;;;;;;;2085952;28;19917;-93
2022/12/21 05:23:40;;;;;;;;;;;;;;;;;;2083426;28;19935;-93
2022/12/21 05:24:40;;;;;;;;;;;;;;;;;;2089899;28;19916;-93
2022/12/21 05:25:40;;;;;;;;;;;;;;;;;;2081996;28;20392;-93
2022/12/21 05:26:41;;;;;;;;;;;;;;;;;;2089759;28;19920;-93
2022/12/21 05:27:41;;;;;;;;;;;;;;;;;;2081459;28;19913;-92
2022/12/21 05:28:42;;;;;;;;;;;;;;;;;;2089659;28;19936;-93
2022/12/21 05:29:42;;;;;;;;;;;;;;;;;;2081863;28;20477;-93
2022/12/21 05:30:43;;;;;;;;;;;;;;;;;;2081748;28;19914;-93
2022/12/21 05:31:43;;;;;;;;;;;;;;;;;;2081612;28;19933;-94
2022/12/21 05:32:43;;;;;;;;;;;;;;;;;;2081586;28;20365;-93
2022/12/21 05:33:43;;;;;;;;;;;;;;;;;;2081918;28;19924;-94
2022/12/21 05:34:44;;;;;;;;;;;;;;;;;;2089948;28;19995;-93
2022/12/21 05:35:44;;;;;;;;;;;;;;;;;;2090120;28;19999;-94
2022/12/21 05:36:44;;;;;;;;;;;;;;;;;;2089957;28;19956;-92
2022/12/21 05:37:45;;;;;;;;;;;;;;;;;;1734342;28;10000673;-93
2022/12/21 05:38:45;;;;;;;;;;;;;;;;;;2089742;28;19997;-94
2022/12/21 05:39:45;;;;;;;;;;;;;;;;;;2081845;28;19970;-93
2022/12/21 05:40:47;;;;;;;;;;;;;;;;;;2084043;28;20000;-92
2022/12/21 05:41:47;;;;;;;;;;;;;;;;;;2084052;28;19913;-93
2022/12/21 05:42:47;;;;;;;;;;;;;;;;;;2090765;28;19908;-92
2022/12/21 05:43:47;;;;;;;;;;;;;;;;;;2099667;28;19935;-92
2022/12/21 05:44:48;;;;;;;;;;;;;;;;;;2099416;28;19945;-94
2022/12/21 05:45:48;;;;;;;;;;;;;;;;;;2086576;28;19943;-94
2022/12/21 05:46:48;;;;;;;;;;;;;;;;;;2097354;28;20470;-93
2022/12/21 05:47:49;;;;;;;;;;;;;;;;;;2092634;28;20075;-92
2022/12/21 05:48:49;;;;;;;;;;;;;;;;;;2082463;28;19923;-93
2022/12/21 05:49:49;;;;;;;;;;;;;;;;;;2090182;28;19913;-94
2022/12/21 05:50:50;;;;;;;;;;;;;;;;;;2090389;28;19912;-93
2022/12/21 05:51:50;;;;;;;;;;;;;;;;;;2080259;28;20124;-87
2022/12/21 05:52:50;;;;;;;;;;;;;;;;;;2081202;28;19994;-88
2022/12/21 05:53:52;;;;;;;;;;;;;;;;;;2081337;28;20288;-87
2022/12/21 05:54:52;;;;;;;;;;;;;;;;;;2081141;28;20093;-89
2022/12/21 05:55:52;;;;;;;;;;;;;;;;;;2089466;28;19909;-89
2022/12/21 05:56:52;;;;;;;;;;;;;;;;;;2090139;28;19936;-86
2022/12/21 05:57:53;;;;;;;;;;;;;;;;;;2089184;28;19912;-87
2022/12/21 05:58:53;;;;;;;;;;;;;;;;;;2097738;28;20403;-87
2022/12/21 05:59:53;;;;;;;;;;;;;;;;;;2089500;28;19912;-87
2022/12/21 06:00:53;;;;;;;;;;;;;;;;;;2089857;28;20053;-87
2022/12/21 06:01:54;;;;;;;;;;;;;;;;;;2089934;28;19913;-87
2022/12/21 06:02:54;;;;;;;;;;;;;;;;;;2097727;28;19924;-87
2022/12/21 06:03:54;;;;;;;;;;;;;;;;;;2098058;28;19997;-87
2022/12/21 06:04:55;;;;;;;;;;;;;;;;;;2098493;28;19921;-88
2022/12/21 06:06:01;;;;;;;;;;;;;;;;;;2092808;28;19999;-87
2022/12/21 06:07:02;;;;;;;;;;;;;;;;;;2087177;28;19913;-88
2022/12/21 06:08:03;;;;;;;;;;;;;;;;;;2082331;28;20276;-88
2022/12/21 06:09:03;;;;;;;;;;;;;;;;;;2081702;28;19942;-88
2022/12/21 06:10:04;;;;;;;;;;;;;;;;;;2073274;28;20012;-89
2022/12/21 06:11:06;;;;;;;;;;;;;;;;;;2072821;28;19929;-89
2022/12/21 06:12:06;;;;;;;;;;;;;;;;;;2081237;28;20350;-88
2022/12/21 06:13:06;;;;;;;;;;;;;;;;;;2080515;28;19913;-87
2022/12/21 06:14:07;;;;;;;;;;;;;;;;;;2080718;28;19954;-88
2022/12/21 06:15:07;;;;;;;;;;;;;;;;;;2080808;28;20399;-88
2022/12/21 06:16:08;;;;;;;;;;;;;;;;;;2080801;28;20427;-87
2022/12/21 06:17:09;;;;;;;;;;;;;;;;;;2080855;28;20061;-88
2022/12/21 06:18:10;;;;;;;;;;;;;;;;;;2081264;28;19935;-88
2022/12/21 06:19:11;;;;;;;;;;;;;;;;;;2080570;28;19957;-88
2022/12/21 06:20:11;;;;;;;;;;;;;;;;;;2080586;28;19917;-89
2022/12/21 06:21:12;;;;;;;;;;;;;;;;;;2080524;28;19913;-88
2022/12/21 06:22:20;;;;;;;;;;;;;;;;;;1968610;28;10162462;-88
2022/12/21 06:23:20;;;;;;;;;;;;;;;;;;2079504;28;20514;-88
2022/12/21 06:24:21;;;;;;;;;;;;;;;;;;2080271;28;19967;-87
2022/12/21 06:25:21;;;;;;;;;;;;;;;;;;2088704;28;19912;-88
2022/12/21 06:26:21;;;;;;;;;;;;;;;;;;2080443;28;20007;-88
2022/12/21 06:27:22;;;;;;;;;;;;;;;;;;2080560;28;20475;-87
2022/12/21 06:28:23;;;;;;;;;;;;;;;;;;2080578;28;19925;-88
2022/12/21 06:29:23;;;;;;;;;;;;;;;;;;2080563;28;19913;-88
2022/12/21 06:30:24;;;;;;;;;;;;;;;;;;2072232;28;20323;-89
2022/12/21 06:31:24;;;;;;;;;;;;;;;;;;2080225;28;19975;-88
2022/12/21 06:32:24;;;;;;;;;;;;;;;;;;2081201;28;20369;-87
2022/12/21 06:33:25;;;;;;;;;;;;;;;;;;2081301;28;19919;-88
2022/12/21 06:34:25;;;;;;;;;;;;;;;;;;2084097;28;19990;-87
2022/12/21 06:35:25;;;;;;;;;;;;;;;;;;2089472;28;19948;-88
2022/12/21 06:36:25;;;;;;;;;;;;;;;;;;2088175;28;20035;-88
2022/12/21 06:37:26;;;;;;;;;;;;;;;;;;2088603;28;19912;-88
2022/12/21 06:38:26;;;;;;;;;;;;;;;;;;2088516;28;19913;-88
2022/12/21 06:39:26;;;;;;;;;;;;;;;;;;2085394;28;20226;-88
2022/12/21 06:40:27;;;;;;;;;;;;;;;;;;2087872;28;19913;-88
2022/12/21 06:41:27;;;;;;;;;;;;;;;;;;2090704;28;20342;-88
2022/12/21 06:42:27;;;;;;;;;;;;;;;;;;2091376;28;19951;-89
2022/12/21 06:43:28;;;;;;;;;;;;;;;;;;2082731;28;19913;-88
2022/12/21 06:44:29;;;;;;;;;;;;;;;;;;2088772;28;20539;-88
2022/12/21 06:45:29;;;;;;;;;;;;;;;;;;2088257;28;19916;-88
2022/12/21 06:46:32;;;;;;;;;;;;;;;;;;2080315;28;19925;-88
2022/12/21 06:47:32;;;;;;;;;;;;;;;;;;2072425;28;19921;-88
2022/12/21 06:48:33;;;;;;;;;;;;;;;;;;2080360;28;20344;-88
2022/12/21 06:49:34;;;;;;;;;;;;;;;;;;2088018;28;19945;-88
2022/12/21 06:50:35;;;;;;;;;;;;;;;;;;2081687;28;20367;-88
2022/12/21 06:51:35;;;;;;;;;;;;;;;;;;2080609;28;19964;-88
2022/12/21 06:52:35;;;;;;;;;;;;;;;;;;2088550;28;19920;-87
2022/12/21 06:53:37;;;;;;;;;;;;;;;;;;2092090;28;19917;-88
2022/12/21 06:54:37;;;;;;;;;;;;;;;;;;2092256;28;19917;-88
2022/12/21 06:55:37;;;;;;;;;;;;;;;;;;2090830;28;19963;-88
2022/12/21 06:56:38;;;;;;;;;;;;;;;;;;2088985;28;19991;-88
2022/12/21 06:57:38;;;;;;;;;;;;;;;;;;2088654;28;20463;-89
2022/12/21 06:58:38;;;;;;;;;;;;;;;;;;2088746;28;19913;-88
2022/12/21 06:59:39;;;;;;;;;;;;;;;;;;2088812;28;20331;-90
2022/12/21 07:00:39;;;;;;;;;;;;;;;;;;2088262;28;20644;-90
2022/12/21 07:01:39;;;;;;;;;;;;;;;;;;2079986;28;19924;-88
2022/12/21 07:02:40;;;;;;;;;;;;;;;;;;2088300;28;19919;-89
2022/12/21 07:03:41;;;;;;;;;;;;;;;;;;2088564;28;20452;-90
2022/12/21 07:04:41;;;;;;;;;;;;;;;;;;2088753;28;20325;-90
2022/12/21 07:05:41;;;;;;;;;;;;;;;;;;2088416;28;19993;-90
2022/12/21 07:06:42;;;;;;;;;;;;;;;;;;2088625;28;20411;-90
2022/12/21 07:07:42;;;;;;;;;;;;;;;;;;2088602;28;20016;-89
2022/12/21 07:08:43;;;;;;;;;;;;;;;;;;2088454;28;19952;-90
2022/12/21 07:09:43;;;;;;;;;;;;;;;;;;2088414;28;19920;-89
2022/12/21 07:10:46;;;;;;;;;;;;;;;;;;2089393;28;20383;-88
2022/12/21 07:11:47;;;;;;;;;;;;;;;;;;2088918;28;19913;-87
2022/12/21 07:12:47;;;;;;;;;;;;;;;;;;2088744;28;20313;-89
2022/12/21 07:13:49;;;;;;;;;;;;;;;;;;2088938;28;19912;-87
2022/12/21 07:14:49;;;;;;;;;;;;;;;;;;2087928;28;19916;-87
2022/12/21 07:15:49;;;;;;;;;;;;;;;;;;2080605;28;19920;-87
2022/12/21 07:16:52;;;;;;;;;;;;;;;;;;2072138;28;19935;-90
2022/12/21 07:17:53;;;;;;;;;;;;;;;;;;2080222;28;20388;-88
2022/12/21 07:18:53;;;;;;;;;;;;;;;;;;2072261;28;19964;-88